Time;durP1;ratioP1;P1;durP2;ratioP2;P2;SDS_P1;SDS_P2;PMS_P1;PMS_P2;Temp;Humidity;BMP_temperature;BMP_pressure;BME280_temperature;BME280_humidity;BME280_pressure;Samples;Min_cycle;Max_cycle;Signal;HPM_P1;HPM_P2
2023/03/19 00:02:10;;;;;;;129.48;36.10;;;;;;;;;;5034246;28;20021;-69
2023/03/19 00:04:36;;;;;;;68.55;24.23;;;;;;;;;;5034088;28;20426;-69
2023/03/19 00:07:01;;;;;;;84.50;26.67;;;;;;;;;;5034274;28;20040;-69
2023/03/19 00:09:28;;;;;;;55.20;20.98;;;;;;;;;;5016452;28;20037;-68
2023/03/19 00:11:53;;;;;;;38.78;18.27;;;;;;;;;;5034092;28;20025;-69
2023/03/19 00:14:18;;;;;;;43.22;18.98;;;;;;;;;;5034117;28;20352;-68
2023/03/19 00:16:44;;;;;;;50.15;20.77;;;;;;;;;;5033923;28;20037;-69
2023/03/19 00:19:10;;;;;;;49.10;19.08;;;;;;;;;;5033449;28;20413;-69
2023/03/19 00:21:35;;;;;;;39.20;18.05;;;;;;;;;;5033710;28;20039;-68
2023/03/19 00:24:01;;;;;;;50.15;19.58;;;;;;;;;;5016152;28;20064;-69
2023/03/19 00:26:32;;;;;;;42.35;17.58;;;;;;;;;;5033726;28;20074;-68
2023/03/19 00:28:58;;;;;;;37.55;15.93;;;;;;;;;;5033918;28;20034;-68
2023/03/19 00:31:26;;;;;;;31.23;15.55;;;;;;;;;;5033819;28;20052;-69
2023/03/19 00:33:52;;;;;;;27.83;15.45;;;;;;;;;;5015606;28;20374;-69
2023/03/19 00:36:17;;;;;;;33.35;16.58;;;;;;;;;;5033673;28;20025;-69
2023/03/19 00:38:44;;;;;;;34.95;15.93;;;;;;;;;;5033435;28;20033;-69
2023/03/19 00:41:11;;;;;;;30.55;14.82;;;;;;;;;;5033531;28;20040;-69
2023/03/19 00:43:37;;;;;;;36.63;17.55;;;;;;;;;;5033518;28;20041;-69
2023/03/19 00:46:03;;;;;;;32.90;15.35;;;;;;;;;;5015967;28;20054;-68
2023/03/19 00:48:29;;;;;;;25.42;12.82;;;;;;;;;;4993878;28;20034;-68
2023/03/19 00:50:55;;;;;;;35.72;14.77;;;;;;;;;;4997586;28;20051;-69
2023/03/19 00:53:21;;;;;;;22.17;13.38;;;;;;;;;;5024084;28;20112;-69
2023/03/19 00:55:46;;;;;;;30.33;14.70;;;;;;;;;;5028732;28;20048;-69
2023/03/19 00:58:12;;;;;;;27.05;13.23;;;;;;;;;;5016002;28;20125;-69
2023/03/19 01:00:37;;;;;;;48.00;18.83;;;;;;;;;;5013907;28;20430;-69
2023/03/19 01:03:05;;;;;;;28.92;14.35;;;;;;;;;;5015781;28;20072;-69
2023/03/19 01:05:31;;;;;;;28.13;14.45;;;;;;;;;;5006203;28;20675;-69
2023/03/19 01:07:56;;;;;;;34.95;14.73;;;;;;;;;;5001007;28;20038;-69
2023/03/19 01:10:23;;;;;;;33.67;16.27;;;;;;;;;;5002726;28;20026;-69
2023/03/19 01:12:49;;;;;;;39.13;16.73;;;;;;;;;;5002380;28;20022;-69
2023/03/19 01:15:15;;;;;;;43.63;18.05;;;;;;;;;;5000827;28;20030;-69
2023/03/19 01:17:41;;;;;;;45.92;19.25;;;;;;;;;;5002973;28;20038;-69
2023/03/19 01:20:11;;;;;;;48.42;19.55;;;;;;;;;;5000867;28;20109;-69
2023/03/19 01:22:39;;;;;;;59.70;21.17;;;;;;;;;;5002427;28;20030;-69
2023/03/19 01:25:05;;;;;;;48.13;20.90;;;;;;;;;;5003377;28;20176;-69
2023/03/19 01:27:31;;;;;;;50.58;20.08;;;;;;;;;;4985461;28;20022;-69
2023/03/19 01:29:56;;;;;;;46.60;19.83;;;;;;;;;;5001524;28;20553;-70
2023/03/19 01:32:22;;;;;;;49.45;21.67;;;;;;;;;;5005305;28;20531;-69
2023/03/19 01:34:47;;;;;;;54.35;22.50;;;;;;;;;;5001196;28;20109;-69
2023/03/19 01:37:13;;;;;;;51.88;22.60;;;;;;;;;;4983779;28;20053;-69
2023/03/19 01:39:38;;;;;;;51.55;21.25;;;;;;;;;;5002565;28;20479;-69
2023/03/19 01:42:04;;;;;;;42.60;20.33;;;;;;;;;;5000726;28;20074;-69
2023/03/19 01:44:37;;;;;;;44.55;19.58;;;;;;;;;;5001746;28;20022;-69
2023/03/19 01:47:13;;;;;;;40.13;19.75;;;;;;;;;;5002368;28;20414;-69
2023/03/19 01:49:39;;;;;;;44.97;20.10;;;;;;;;;;5002550;28;20037;-69
2023/03/19 01:52:07;;;;;;;54.05;23.60;;;;;;;;;;5000463;28;20038;-69
2023/03/19 01:54:33;;;;;;;52.60;22.52;;;;;;;;;;5004044;28;20038;-69
2023/03/19 01:57:11;;;;;;;50.17;21.90;;;;;;;;;;5002513;28;20032;-69
2023/03/19 01:59:46;;;;;;;46.10;20.58;;;;;;;;;;5005071;28;20696;-70
2023/03/19 02:02:39;;;;;;;40.80;18.60;;;;;;;;;;5011629;28;20141;-69
2023/03/19 02:05:10;;;;;;;35.28;18.30;;;;;;;;;;5008635;28;20053;-70
2023/03/19 02:07:38;;;;;;;43.33;19.42;;;;;;;;;;5011743;28;20038;-69
2023/03/19 02:10:07;;;;;;;36.83;18.67;;;;;;;;;;5011695;28;20026;-70
2023/03/19 02:12:33;;;;;;;43.35;19.02;;;;;;;;;;5011715;28;20495;-69
2023/03/19 02:14:58;;;;;;;44.33;20.42;;;;;;;;;;5011371;28;20044;-70
2023/03/19 02:17:25;;;;;;;42.35;21.27;;;;;;;;;;5011593;28;20036;-69
2023/03/19 02:20:00;;;;;;;43.58;21.08;;;;;;;;;;5011479;28;20117;-69
2023/03/19 02:22:28;;;;;;;48.95;19.95;;;;;;;;;;5011613;28;20030;-69
2023/03/19 02:25:10;;;;;;;45.85;20.10;;;;;;;;;;5011623;28;20030;-69
2023/03/19 02:27:35;;;;;;;42.35;19.85;;;;;;;;;;5011483;28;20030;-69
2023/03/19 02:30:21;;;;;;;49.30;19.73;;;;;;;;;;5011166;28;20537;-69
2023/03/19 02:32:46;;;;;;;36.03;17.02;;;;;;;;;;5011452;28;20513;-69
2023/03/19 02:35:11;;;;;;;37.95;18.25;;;;;;;;;;5011409;28;20065;-69
2023/03/19 02:37:38;;;;;;;33.88;18.08;;;;;;;;;;5011460;28;20057;-69
2023/03/19 02:40:13;;;;;;;31.95;17.52;;;;;;;;;;5011323;28;20387;-69
2023/03/19 02:42:39;;;;;;;39.35;19.33;;;;;;;;;;5011849;28;20050;-69
2023/03/19 02:45:06;;;;;;;39.72;18.98;;;;;;;;;;5014862;28;20506;-69
2023/03/19 02:47:31;;;;;;;37.38;18.70;;;;;;;;;;5015441;28;20121;-69
2023/03/19 02:49:57;;;;;;;35.85;18.02;;;;;;;;;;5015742;28;20097;-69
2023/03/19 02:52:22;;;;;;;37.67;18.58;;;;;;;;;;5015424;28;20453;-69
2023/03/19 02:54:48;;;;;;;40.25;19.55;;;;;;;;;;5015354;28;20068;-69
2023/03/19 02:57:14;;;;;;;34.50;18.20;;;;;;;;;;5015281;28;20028;-69
2023/03/19 02:59:40;;;;;;;64.35;27.92;;;;;;;;;;5015309;28;20029;-69
2023/03/19 03:02:05;;;;;;;42.30;20.58;;;;;;;;;;4997759;28;20109;-69
2023/03/19 03:04:32;;;;;;;37.55;19.65;;;;;;;;;;5015326;28;20394;-69
2023/03/19 03:06:58;;;;;;;39.13;19.08;;;;;;;;;;5014858;28;20383;-69
2023/03/19 03:09:23;;;;;;;40.75;21.67;;;;;;;;;;5014547;28;20033;-69
2023/03/19 03:11:49;;;;;;;50.92;22.60;;;;;;;;;;5014666;28;20533;-69
2023/03/19 03:14:14;;;;;;;46.35;22.25;;;;;;;;;;5014252;28;20421;-69
2023/03/19 03:16:39;;;;;;;47.25;22.05;;;;;;;;;;5014840;28;20022;-69
2023/03/19 03:19:05;;;;;;;58.83;24.90;;;;;;;;;;5014974;28;20075;-69
2023/03/19 03:21:30;;;;;;;59.35;25.48;;;;;;;;;;5015097;28;20018;-69
2023/03/19 03:23:56;;;;;;;61.90;25.20;;;;;;;;;;5015074;28;20379;-69
2023/03/19 03:26:21;;;;;;;62.35;25.23;;;;;;;;;;5014734;28;20032;-69
2023/03/19 03:28:47;;;;;;;60.40;24.70;;;;;;;;;;5014618;28;20472;-69
2023/03/19 03:31:13;;;;;;;51.80;21.10;;;;;;;;;;5014852;28;20030;-69
2023/03/19 03:33:38;;;;;;;57.70;22.20;;;;;;;;;;5014748;28;20025;-69
2023/03/19 03:36:04;;;;;;;56.97;22.65;;;;;;;;;;5014651;28;20108;-69
2023/03/19 03:38:31;;;;;;;52.13;21.70;;;;;;;;;;5014555;28;20518;-69
2023/03/19 03:40:57;;;;;;;50.90;22.13;;;;;;;;;;5013967;28;20034;-69
2023/03/19 03:43:22;;;;;;;43.08;18.95;;;;;;;;;;5013794;28;20036;-69
2023/03/19 03:45:48;;;;;;;31.02;16.88;;;;;;;;;;5013663;28;20034;-69
2023/03/19 03:48:15;;;;;;;46.72;19.30;;;;;;;;;;5014005;28;20025;-69
2023/03/19 03:50:40;;;;;;;39.55;17.45;;;;;;;;;;5014314;28;20053;-69
2023/03/19 03:53:07;;;;;;;35.60;17.48;;;;;;;;;;4996618;28;20373;-69
2023/03/19 03:55:33;;;;;;;25.00;14.15;;;;;;;;;;5013245;28;20026;-69
2023/03/19 03:57:59;;;;;;;27.75;15.02;;;;;;;;;;5013524;28;20026;-69
2023/03/19 04:00:26;;;;;;;29.92;14.02;;;;;;;;;;5013480;28;20043;-69
2023/03/19 04:02:52;;;;;;;34.60;15.85;;;;;;;;;;5013843;28;20030;-69
2023/03/19 04:05:17;;;;;;;23.77;13.05;;;;;;;;;;5013919;28;20030;-69
2023/03/19 04:07:43;;;;;;;22.17;10.93;;;;;;;;;;5013848;28;20474;-69
2023/03/19 04:10:10;;;;;;;21.75;12.27;;;;;;;;;;5013484;28;20498;-69
2023/03/19 04:12:37;;;;;;;27.60;13.57;;;;;;;;;;5013193;28;20033;-69
2023/03/19 04:15:09;;;;;;;24.02;13.13;;;;;;;;;;4995894;28;20040;-69
2023/03/19 04:17:35;;;;;;;22.77;13.32;;;;;;;;;;5013373;28;20032;-69
2023/03/19 04:20:03;;;;;;;23.33;13.20;;;;;;;;;;5013732;28;20029;-69
2023/03/19 04:22:30;;;;;;;23.85;13.85;;;;;;;;;;5013734;28;20026;-69
2023/03/19 04:24:56;;;;;;;25.55;13.80;;;;;;;;;;5013895;28;20026;-69
2023/03/19 04:27:21;;;;;;;23.92;13.65;;;;;;;;;;5013563;28;20037;-69
2023/03/19 04:29:47;;;;;;;24.92;13.63;;;;;;;;;;5013564;28;20060;-69
2023/03/19 04:32:12;;;;;;;23.40;13.57;;;;;;;;;;5013883;28;20038;-69
2023/03/19 04:34:37;;;;;;;25.60;14.32;;;;;;;;;;5013500;28;20030;-69
2023/03/19 04:37:03;;;;;;;24.95;14.77;;;;;;;;;;5013262;28;20022;-69
2023/03/19 04:39:29;;;;;;;32.60;14.82;;;;;;;;;;5012894;28;20041;-69
2023/03/19 04:41:54;;;;;;;33.33;15.25;;;;;;;;;;5012928;28;20022;-69
2023/03/19 04:44:20;;;;;;;23.50;14.63;;;;;;;;;;5012766;28;20033;-69
2023/03/19 04:46:46;;;;;;;43.40;21.17;;;;;;;;;;5013001;28;20033;-69
2023/03/19 04:49:12;;;;;;;35.95;18.70;;;;;;;;;;5013283;28;20026;-69
2023/03/19 04:51:37;;;;;;;34.35;18.88;;;;;;;;;;5013246;28;20050;-69
2023/03/19 04:54:04;;;;;;;28.13;16.33;;;;;;;;;;5029498;28;20036;-69
2023/03/19 04:56:29;;;;;;;31.88;16.42;;;;;;;;;;5032967;28;20359;-69
2023/03/19 04:58:55;;;;;;;27.98;14.38;;;;;;;;;;5015049;28;20116;-69
2023/03/19 05:01:21;;;;;;;27.15;15.30;;;;;;;;;;5032776;28;20439;-69
2023/03/19 05:03:46;;;;;;;26.77;14.43;;;;;;;;;;5032666;28;20425;-69
2023/03/19 05:06:12;;;;;;;24.00;14.88;;;;;;;;;;5032233;28;20132;-69
2023/03/19 05:08:37;;;;;;;31.02;15.95;;;;;;;;;;5031886;28;20072;-69
2023/03/19 05:11:03;;;;;;;27.58;15.40;;;;;;;;;;5032173;28;20029;-69
2023/03/19 05:13:29;;;;;;;29.75;15.68;;;;;;;;;;5031963;28;20108;-69
2023/03/19 05:15:54;;;;;;;28.23;14.85;;;;;;;;;;5032043;28;20079;-69
2023/03/19 05:18:20;;;;;;;29.95;15.27;;;;;;;;;;5032655;28;20040;-69
2023/03/19 05:20:46;;;;;;;34.83;15.57;;;;;;;;;;5032598;28;20037;-69
2023/03/19 05:23:12;;;;;;;36.47;15.07;;;;;;;;;;5031763;28;20021;-69
2023/03/19 05:25:39;;;;;;;27.95;14.38;;;;;;;;;;5031790;28;20026;-69
2023/03/19 05:28:06;;;;;;;26.02;13.98;;;;;;;;;;5031985;28;20433;-69
2023/03/19 05:30:32;;;;;;;26.05;13.23;;;;;;;;;;5031756;28;20037;-69
2023/03/19 05:32:58;;;;;;;25.88;14.70;;;;;;;;;;5032473;28;20510;-69
2023/03/19 05:35:25;;;;;;;25.25;15.00;;;;;;;;;;5032251;28;20479;-69
2023/03/19 05:37:50;;;;;;;27.13;14.43;;;;;;;;;;5032137;28;20499;-69
2023/03/19 05:40:16;;;;;;;26.38;14.20;;;;;;;;;;5032114;28;20033;-69
2023/03/19 05:42:41;;;;;;;24.42;14.20;;;;;;;;;;5032291;28;20466;-69
2023/03/19 05:45:07;;;;;;;27.10;14.35;;;;;;;;;;5032340;28;20483;-69
2023/03/19 05:47:33;;;;;;;22.98;14.00;;;;;;;;;;5032335;28;20437;-69
2023/03/19 05:49:59;;;;;;;27.15;14.45;;;;;;;;;;5031833;28;20029;-69
2023/03/19 05:52:25;;;;;;;24.83;14.27;;;;;;;;;;5031489;28;20497;-69
2023/03/19 05:54:50;;;;;;;27.42;14.57;;;;;;;;;;5031788;28;20051;-69
2023/03/19 05:57:16;;;;;;;22.20;13.32;;;;;;;;;;5031462;28;20060;-69
2023/03/19 05:59:41;;;;;;;28.60;14.93;;;;;;;;;;5031487;28;20036;-69
2023/03/19 06:02:07;;;;;;;26.00;14.18;;;;;;;;;;5031581;28;20025;-69
2023/03/19 06:04:33;;;;;;;26.40;15.25;;;;;;;;;;5031980;28;20541;-69
2023/03/19 06:06:58;;;;;;;28.60;15.63;;;;;;;;;;5031769;28;20033;-69
2023/03/19 06:09:24;;;;;;;28.92;15.50;;;;;;;;;;5032074;28;20029;-69
2023/03/19 06:11:49;;;;;;;27.23;15.25;;;;;;;;;;5031995;28;20033;-69
2023/03/19 06:14:15;;;;;;;28.25;14.80;;;;;;;;;;5032054;28;20386;-69
2023/03/19 06:16:40;;;;;;;29.15;14.65;;;;;;;;;;5032114;28;20017;-69
2023/03/19 06:19:06;;;;;;;26.70;15.07;;;;;;;;;;5034500;28;20037;-69
2023/03/19 06:21:31;;;;;;;23.48;15.00;;;;;;;;;;5035769;28;20021;-69
2023/03/19 06:23:57;;;;;;;26.38;13.63;;;;;;;;;;5035344;28;20033;-69
2023/03/19 06:26:23;;;;;;;27.20;14.43;;;;;;;;;;5035315;28;20122;-69
2023/03/19 06:28:49;;;;;;;28.45;16.30;;;;;;;;;;5034976;28;20134;-69
2023/03/19 06:31:15;;;;;;;22.90;12.63;;;;;;;;;;5035211;28;20388;-69
2023/03/19 06:33:40;;;;;;;24.10;12.45;;;;;;;;;;5035613;28;20040;-69
2023/03/19 06:36:06;;;;;;;25.63;12.93;;;;;;;;;;5035311;28;20029;-69
2023/03/19 06:38:32;;;;;;;18.85;11.88;;;;;;;;;;5035333;28;20026;-69
2023/03/19 06:40:57;;;;;;;19.65;11.82;;;;;;;;;;5035511;28;20079;-69
2023/03/19 06:43:23;;;;;;;18.95;10.70;;;;;;;;;;5035487;28;20057;-69
2023/03/19 06:45:48;;;;;;;23.02;12.30;;;;;;;;;;5035306;28;20029;-69
2023/03/19 06:48:14;;;;;;;20.08;11.25;;;;;;;;;;5035351;28;20072;-69
2023/03/19 06:50:40;;;;;;;33.53;15.32;;;;;;;;;;5035023;28;20132;-69
2023/03/19 06:53:06;;;;;;;19.70;11.38;;;;;;;;;;5035244;28;20021;-70
2023/03/19 06:55:32;;;;;;;20.58;11.35;;;;;;;;;;5035231;28;20044;-69
2023/03/19 06:57:57;;;;;;;17.52;11.43;;;;;;;;;;5034773;28;20379;-69
2023/03/19 07:00:23;;;;;;;23.48;11.27;;;;;;;;;;5034288;28;20033;-69
2023/03/19 07:02:49;;;;;;;20.27;11.02;;;;;;;;;;5034308;28;20048;-69
2023/03/19 07:05:15;;;;;;;19.55;10.63;;;;;;;;;;5034048;28;20022;-69
2023/03/19 07:07:40;;;;;;;21.17;11.65;;;;;;;;;;5035063;28;20036;-70
2023/03/19 07:10:07;;;;;;;19.20;11.02;;;;;;;;;;5034873;28;20774;-69
2023/03/19 07:12:33;;;;;;;17.38;11.30;;;;;;;;;;5035014;28;20052;-70
2023/03/19 07:14:58;;;;;;;19.10;11.60;;;;;;;;;;5034967;28;20025;-70
2023/03/19 07:17:24;;;;;;;19.23;10.45;;;;;;;;;;5034889;28;20030;-70
2023/03/19 07:19:50;;;;;;;18.13;10.95;;;;;;;;;;5034369;28;20029;-70
2023/03/19 07:22:16;;;;;;;17.80;10.88;;;;;;;;;;5034260;28;20029;-70
2023/03/19 07:24:41;;;;;;;19.52;10.88;;;;;;;;;;5034064;28;20041;-70
2023/03/19 07:27:07;;;;;;;17.58;10.88;;;;;;;;;;5033887;28;20033;-70
2023/03/19 07:29:32;;;;;;;18.05;10.65;;;;;;;;;;5033870;28;20041;-70
2023/03/19 07:31:58;;;;;;;19.83;11.02;;;;;;;;;;5034315;28;20525;-70
2023/03/19 07:34:23;;;;;;;19.83;11.32;;;;;;;;;;5016510;28;20116;-70
2023/03/19 07:36:50;;;;;;;17.63;10.88;;;;;;;;;;5034398;28;20056;-70
2023/03/19 07:39:15;;;;;;;19.80;11.35;;;;;;;;;;5034251;28;20042;-70
2023/03/19 07:41:43;;;;;;;19.17;11.18;;;;;;;;;;5034497;28;20083;-70
2023/03/19 07:44:09;;;;;;;16.60;10.65;;;;;;;;;;5034175;28;20033;-70
2023/03/19 07:46:35;;;;;;;18.30;10.20;;;;;;;;;;5034051;28;20025;-70
2023/03/19 07:49:00;;;;;;;14.13;9.30;;;;;;;;;;5033842;28;20029;-70
2023/03/19 07:51:26;;;;;;;17.55;10.48;;;;;;;;;;5033863;28;20514;-70
2023/03/19 07:53:51;;;;;;;15.95;9.88;;;;;;;;;;5033930;28;20422;-70
2023/03/19 07:56:16;;;;;;;16.33;10.02;;;;;;;;;;5033759;28;20041;-71
2023/03/19 07:58:42;;;;;;;15.25;10.07;;;;;;;;;;5033233;28;20029;-70
2023/03/19 08:01:07;;;;;;;15.60;9.52;;;;;;;;;;5033448;28;20021;-70
2023/03/19 08:03:33;;;;;;;15.35;9.43;;;;;;;;;;5033107;28;20040;-70
2023/03/19 08:05:58;;;;;;;15.07;9.73;;;;;;;;;;5033448;28;20026;-70
2023/03/19 08:08:24;;;;;;;17.52;9.80;;;;;;;;;;5033588;28;20053;-70
2023/03/19 08:10:53;;;;;;;20.42;9.70;;;;;;;;;;5028687;28;20460;-69
2023/03/19 08:13:18;;;;;;;15.48;9.50;;;;;;;;;;5014002;28;20105;-69
2023/03/19 08:15:44;;;;;;;15.15;9.98;;;;;;;;;;4996337;28;20128;-70
2023/03/19 08:18:09;;;;;;;13.98;9.68;;;;;;;;;;4995972;28;20481;-70
2023/03/19 08:20:35;;;;;;;17.23;9.65;;;;;;;;;;5013715;28;20499;-69
2023/03/19 08:23:01;;;;;;;15.30;9.52;;;;;;;;;;5013430;28;20060;-69
2023/03/19 08:25:31;;;;;;;14.65;9.93;;;;;;;;;;5012922;28;20022;-69
2023/03/19 08:27:56;;;;;;;15.45;8.90;;;;;;;;;;5013170;28;20108;-70
2023/03/19 08:30:22;;;;;;;14.07;8.85;;;;;;;;;;5013142;28;20428;-69
2023/03/19 08:32:49;;;;;;;15.15;9.82;;;;;;;;;;5013395;28;20036;-69
2023/03/19 08:35:15;;;;;;;13.70;8.73;;;;;;;;;;5013611;28;20030;-69
2023/03/19 08:37:41;;;;;;;15.48;9.70;;;;;;;;;;5013421;28;20018;-69
2023/03/19 08:40:07;;;;;;;14.27;9.48;;;;;;;;;;5013193;28;20044;-69
2023/03/19 08:42:33;;;;;;;15.18;8.50;;;;;;;;;;4995686;28;20034;-69
2023/03/19 08:44:59;;;;;;;13.05;8.40;;;;;;;;;;5013351;28;20441;-69
2023/03/19 08:47:24;;;;;;;13.63;8.55;;;;;;;;;;5013199;28;20022;-69
2023/03/19 08:49:51;;;;;;;15.20;9.57;;;;;;;;;;5013308;28;20030;-69
2023/03/19 08:52:17;;;;;;;14.20;9.25;;;;;;;;;;5013912;28;20092;-69
2023/03/19 08:54:42;;;;;;;14.38;8.57;;;;;;;;;;5002028;28;20429;-69
2023/03/19 08:57:08;;;;;;;16.05;10.43;;;;;;;;;;4986408;28;20109;-69
2023/03/19 08:59:34;;;;;;;14.82;8.85;;;;;;;;;;5002299;28;20460;-69
2023/03/19 09:02:00;;;;;;;17.85;8.43;;;;;;;;;;5002733;28;20115;-69
2023/03/19 09:04:25;;;;;;;12.75;8.60;;;;;;;;;;5003874;28;20130;-69
2023/03/19 09:06:51;;;;;;;12.30;8.15;;;;;;;;;;5002040;28;20058;-69
2023/03/19 09:09:22;;;;;;;12.65;8.13;;;;;;;;;;5003457;28;20029;-69
2023/03/19 09:11:48;;;;;;;11.70;8.70;;;;;;;;;;5016284;28;20033;-69
2023/03/19 09:14:15;;;;;;;12.05;7.63;;;;;;;;;;5014759;28;20022;-69
2023/03/19 09:16:41;;;;;;;10.20;7.30;;;;;;;;;;4999293;28;20036;-69
2023/03/19 09:19:06;;;;;;;10.43;7.25;;;;;;;;;;5014564;28;20025;-69
2023/03/19 09:21:32;;;;;;;12.55;7.80;;;;;;;;;;5014501;28;20080;-69
2023/03/19 09:23:57;;;;;;;9.85;7.15;;;;;;;;;;5014662;28;20026;-69
2023/03/19 09:26:23;;;;;;;13.18;8.00;;;;;;;;;;5014896;28;20030;-69
2023/03/19 09:28:48;;;;;;;11.07;7.20;;;;;;;;;;5011217;28;20091;-69
2023/03/19 09:31:14;;;;;;;8.65;6.18;;;;;;;;;;5009833;28;20030;-69
2023/03/19 09:33:39;;;;;;;12.73;7.28;;;;;;;;;;5012510;28;20077;-69
2023/03/19 09:36:05;;;;;;;11.63;7.30;;;;;;;;;;5015667;28;20021;-69
2023/03/19 09:38:30;;;;;;;15.60;8.10;;;;;;;;;;5032435;28;20029;-69
2023/03/19 09:41:18;;;;;;;12.23;7.35;;;;;;;;;;5032510;28;20483;-68
2023/03/19 09:43:59;;;;;;;13.52;7.70;;;;;;;;;;5032006;28;20537;-69
2023/03/19 09:47:07;;;;;;;12.27;7.57;;;;;;;;;;5032588;28;20048;-69
2023/03/19 09:49:46;;;;;;;12.95;7.32;;;;;;;;;;5031706;28;20041;-70
2023/03/19 09:52:30;;;;;;;13.98;8.80;;;;;;;;;;5032125;28;20050;-69
2023/03/19 09:55:00;;;;;;;17.95;9.65;;;;;;;;;;5036526;28;20355;-69
2023/03/19 09:57:28;;;;;;;21.05;12.93;;;;;;;;;;5036374;28;20022;-69
2023/03/19 09:59:55;;;;;;;15.13;10.27;;;;;;;;;;5035977;28;20044;-70
2023/03/19 10:02:30;;;;;;;14.30;9.95;;;;;;;;;;5036454;28;20025;-69
2023/03/19 10:05:24;;;;;;;23.08;14.55;;;;;;;;;;5032204;28;20371;-69
2023/03/19 10:08:11;;;;;;;31.70;19.83;;;;;;;;;;5016642;28;20054;-69
2023/03/19 10:10:42;;;;;;;23.55;15.82;;;;;;;;;;5016540;28;20026;-70
2023/03/19 10:13:30;;;;;;;17.73;12.30;;;;;;;;;;5016257;28;20048;-69
2023/03/19 10:15:59;;;;;;;20.35;13.30;;;;;;;;;;5016268;28;20077;-70
2023/03/19 10:18:31;;;;;;;16.52;10.20;;;;;;;;;;5016222;28;20026;-69
2023/03/19 10:21:10;;;;;;;19.95;12.60;;;;;;;;;;5016260;28;20030;-69
2023/03/19 10:23:47;;;;;;;18.08;11.45;;;;;;;;;;5016162;28;20084;-70
2023/03/19 10:26:15;;;;;;;19.27;11.93;;;;;;;;;;5016217;28;20156;-70
2023/03/19 10:28:43;;;;;;;23.88;14.10;;;;;;;;;;5015935;28;20025;-70
2023/03/19 10:31:16;;;;;;;21.17;13.13;;;;;;;;;;4998523;28;20084;-69
2023/03/19 10:34:13;;;;;;;23.23;14.00;;;;;;;;;;5016107;28;20123;-69
2023/03/19 10:36:38;;;;;;;23.48;13.60;;;;;;;;;;4936151;29;20501;-70
2023/03/19 10:39:06;;;;;;;21.65;13.20;;;;;;;;;;4936220;29;20118;-70
2023/03/19 10:42:04;;;;;;;27.00;13.40;;;;;;;;;;4925803;29;20056;-70
2023/03/19 10:44:48;;;;;;;19.58;11.07;;;;;;;;;;4916633;29;20028;-70
2023/03/19 10:47:15;;;;;;;31.35;14.40;;;;;;;;;;4917180;29;20131;-70
2023/03/19 10:49:41;;;;;;;22.95;12.77;;;;;;;;;;4917127;29;20390;-70
2023/03/19 10:52:23;;;;;;;18.33;11.57;;;;;;;;;;4902335;29;20055;-70
2023/03/19 10:54:54;;;;;;;16.50;11.15;;;;;;;;;;4916991;29;20421;-70
2023/03/19 10:57:25;;;;;;;13.55;9.98;;;;;;;;;;4916731;29;20167;-69
2023/03/19 10:59:51;;;;;;;13.93;10.43;;;;;;;;;;4916927;29;20540;-69
2023/03/19 11:02:21;;;;;;;17.33;11.02;;;;;;;;;;4916908;29;20036;-69
2023/03/19 11:04:46;;;;;;;13.88;9.13;;;;;;;;;;4915501;29;20028;-71
2023/03/19 11:07:16;;;;;;;13.85;7.75;;;;;;;;;;4904871;29;20043;-71
2023/03/19 11:09:46;;;;;;;12.63;8.18;;;;;;;;;;4897881;29;20672;-69
2023/03/19 11:12:28;;;;;;;9.57;7.78;;;;;;;;;;4897738;29;20047;-69
2023/03/19 11:14:56;;;;;;;14.80;8.85;;;;;;;;;;4956956;28;20031;-69
2023/03/19 11:17:38;;;;;;;13.45;9.25;;;;;;;;;;4956721;29;20095;-69
2023/03/19 11:20:10;;;;;;;15.98;9.43;;;;;;;;;;4956860;29;20035;-69
2023/03/19 11:22:36;;;;;;;12.40;8.95;;;;;;;;;;4956922;28;20024;-68
2023/03/19 11:25:18;;;;;;;12.80;8.40;;;;;;;;;;4955607;29;20027;-69
2023/03/19 11:27:59;;;;;;;11.15;6.97;;;;;;;;;;4956542;28;20030;-69
2023/03/19 11:30:32;;;;;;;12.40;8.10;;;;;;;;;;4956584;29;20500;-70
2023/03/19 11:33:32;;;;;;;12.32;8.68;;;;;;;;;;4956686;28;20031;-69
2023/03/19 11:36:03;;;;;;;11.15;7.47;;;;;;;;;;4956369;28;20039;-68
2023/03/19 11:38:49;;;;;;;10.25;7.45;;;;;;;;;;4956580;29;20023;-69
2023/03/19 11:41:54;;;;;;;14.43;9.63;;;;;;;;;;4956277;29;20046;-69
2023/03/19 11:44:32;;;;;;;13.10;7.47;;;;;;;;;;4947479;29;20043;-69
2023/03/19 11:47:01;;;;;;;11.20;8.32;;;;;;;;;;4956316;28;20030;-70
2023/03/19 11:50:08;;;;;;;9.23;6.63;;;;;;;;;;4956273;29;20047;-69
2023/03/19 11:52:59;;;;;;;11.95;6.78;;;;;;;;;;4920118;29;20114;-69
2023/03/19 11:55:34;;;;;;;9.52;6.82;;;;;;;;;;4934587;29;20039;-69
2023/03/19 11:58:02;;;;;;;8.73;6.70;;;;;;;;;;4934961;29;20024;-69
2023/03/19 12:00:53;;;;;;;11.38;8.27;;;;;;;;;;4934721;29;20039;-69
2023/03/19 12:03:27;;;;;;;10.98;6.82;;;;;;;;;;4934781;29;20087;-69
2023/03/19 12:05:56;;;;;;;11.25;7.43;;;;;;;;;;4934091;29;20175;-69
2023/03/19 12:08:57;;;;;;;11.70;6.15;;;;;;;;;;4934291;29;20044;-69
2023/03/19 12:11:27;;;;;;;7.82;4.82;;;;;;;;;;4934437;29;20106;-70
2023/03/19 12:14:25;;;;;;;5.85;4.40;;;;;;;;;;4934601;29;20032;-70
2023/03/19 12:17:06;;;;;;;7.65;4.90;;;;;;;;;;4933795;29;20060;-69
2023/03/19 12:19:32;;;;;;;6.32;4.38;;;;;;;;;;4934369;29;20103;-69
2023/03/19 12:22:13;;;;;;;5.85;4.53;;;;;;;;;;4934465;29;20039;-69
2023/03/19 12:25:03;;;;;;;7.35;4.20;;;;;;;;;;4934111;29;20036;-69
2023/03/19 12:27:40;;;;;;;5.82;3.90;;;;;;;;;;4940271;29;20094;-69
2023/03/19 12:30:14;;;;;;;6.05;4.05;;;;;;;;;;4955504;28;20038;-69
2023/03/19 12:32:41;;;;;;;5.18;3.38;;;;;;;;;;4965102;28;20042;-69
2023/03/19 12:35:17;;;;;;;5.25;3.97;;;;;;;;;;4974703;28;20545;-69
2023/03/19 12:37:58;;;;;;;6.00;3.70;;;;;;;;;;4974708;28;20062;-69
2023/03/19 12:40:40;;;;;;;6.15;3.00;;;;;;;;;;4974694;28;20023;-69
2023/03/19 12:43:31;;;;;;;4.75;3.00;;;;;;;;;;4974707;28;20022;-69
2023/03/19 12:46:18;;;;;;;3.15;2.13;;;;;;;;;;4933798;29;20063;-69
2023/03/19 12:49:01;;;;;;;5.00;2.67;;;;;;;;;;4933652;29;20040;-70
2023/03/19 12:51:37;;;;;;;4.68;2.58;;;;;;;;;;4933724;29;20525;-70
2023/03/19 12:54:12;;;;;;;4.68;2.55;;;;;;;;;;4933254;29;20128;-70
2023/03/19 12:57:04;;;;;;;5.13;2.35;;;;;;;;;;4927186;29;20159;-70
2023/03/19 12:59:42;;;;;;;2.83;1.70;;;;;;;;;;4914910;29;20387;-70
2023/03/19 13:02:17;;;;;;;3.15;1.90;;;;;;;;;;4914946;29;20024;-70
2023/03/19 13:04:56;;;;;;;3.95;2.60;;;;;;;;;;4914865;29;20044;-70
2023/03/19 13:07:48;;;;;;;5.93;2.20;;;;;;;;;;4914481;29;20024;-72
2023/03/19 13:10:18;;;;;;;3.45;2.35;;;;;;;;;;4914794;29;20178;-70
2023/03/19 13:12:46;;;;;;;7.70;4.90;;;;;;;;;;4914552;29;20040;-70
2023/03/19 13:15:29;;;;;;;3.53;2.28;;;;;;;;;;4914694;29;20043;-70
2023/03/19 13:18:00;;;;;;;5.68;2.40;;;;;;;;;;4914528;29;20482;-70
2023/03/19 13:20:38;;;;;;;2.40;1.88;;;;;;;;;;4914433;29;20490;-70
2023/03/19 13:23:06;;;;;;;3.50;1.98;;;;;;;;;;4937034;28;20101;-70
2023/03/19 13:25:37;;;;;;;3.70;2.22;;;;;;;;;;4977602;28;20537;-70
2023/03/19 13:28:10;;;;;;;2.88;1.77;;;;;;;;;;4991983;28;20022;-70
2023/03/19 13:30:39;;;;;;;2.60;1.63;;;;;;;;;;4992329;28;20030;-68
2023/03/19 13:33:11;;;;;;;3.22;1.70;;;;;;;;;;4993343;28;20045;-70
2023/03/19 13:35:43;;;;;;;5.60;3.40;;;;;;;;;;4992189;28;20057;-69
2023/03/19 13:38:21;;;;;;;4.43;2.80;;;;;;;;;;4992961;28;20033;-68
2023/03/19 13:40:47;;;;;;;4.05;2.80;;;;;;;;;;4993144;28;20072;-68
2023/03/19 13:43:28;;;;;;;4.00;2.30;;;;;;;;;;4993160;28;20109;-68
2023/03/19 13:46:10;;;;;;;4.35;2.60;;;;;;;;;;4991175;28;20119;-68
2023/03/19 13:48:47;;;;;;;3.10;1.80;;;;;;;;;;4991093;28;20105;-68
2023/03/19 13:51:20;;;;;;;2.35;1.50;;;;;;;;;;5006522;28;20114;-68
2023/03/19 13:54:06;;;;;;;2.65;1.80;;;;;;;;;;5001905;28;20030;-68
2023/03/19 13:56:32;;;;;;;5.20;1.90;;;;;;;;;;4991201;28;20576;-68
2023/03/19 13:59:21;;;;;;;4.22;1.70;;;;;;;;;;4991229;28;20034;-68
2023/03/19 14:01:47;;;;;;;5.50;2.70;;;;;;;;;;4993208;28;20049;-69
2023/03/19 14:04:33;;;;;;;2.78;1.70;;;;;;;;;;4993061;28;20026;-69
2023/03/19 14:07:15;;;;;;;3.35;1.80;;;;;;;;;;4992833;28;20027;-68
2023/03/19 14:09:43;;;;;;;4.40;2.10;;;;;;;;;;4993088;28;20022;-68
2023/03/19 14:12:18;;;;;;;3.17;1.85;;;;;;;;;;4993131;28;20065;-68
2023/03/19 14:15:04;;;;;;;2.80;1.50;;;;;;;;;;4992945;28;20438;-68
2023/03/19 14:17:35;;;;;;;2.88;1.40;;;;;;;;;;4992946;28;20199;-69
2023/03/19 14:20:09;;;;;;;2.17;1.27;;;;;;;;;;4992685;28;20113;-69
2023/03/19 14:22:55;;;;;;;3.20;1.48;;;;;;;;;;4992997;28;20391;-69
2023/03/19 14:25:25;;;;;;;2.50;1.40;;;;;;;;;;4992904;28;20025;-69
2023/03/19 14:28:01;;;;;;;10.75;2.50;;;;;;;;;;4992569;28;20026;-68
2023/03/19 14:30:35;;;;;;;3.45;1.30;;;;;;;;;;4992698;28;20475;-69
2023/03/19 14:33:07;;;;;;;3.13;1.55;;;;;;;;;;4992928;28;20034;-68
2023/03/19 14:35:39;;;;;;;2.70;1.58;;;;;;;;;;4992597;28;20022;-68
2023/03/19 14:38:12;;;;;;;2.90;1.50;;;;;;;;;;4992873;28;20030;-69
2023/03/19 14:40:43;;;;;;;2.70;1.58;;;;;;;;;;4995946;28;20117;-69